createdAt,value
2023-02-08T00:00:10.820Z,-1.54
2023-02-08T00:05:12.631Z,-1.66
2023-02-08T00:10:14.645Z,-1.76
2023-02-08T00:15:16.561Z,-1.88
2023-02-08T00:20:18.551Z,-2.01
2023-02-08T00:25:21.012Z,-2.12
2023-02-08T00:30:22.981Z,-2.22
2023-02-08T00:35:24.862Z,-2.18
2023-02-08T00:40:27.860Z,-2.09
2023-02-08T00:45:29.831Z,-2.07
2023-02-08T00:50:32.107Z,-2.09
2023-02-08T00:55:34.400Z,-2.27
2023-02-08T01:00:36.317Z,-2.29
2023-02-08T01:05:40.931Z,-2.35
2023-02-08T01:10:43.200Z,-2.42
2023-02-08T01:15:45.121Z,-2.46
2023-02-08T01:20:46.982Z,-2.49
2023-02-08T01:25:48.845Z,-2.46
2023-02-08T01:30:52.609Z,-2.40
2023-02-08T01:35:55.891Z,-2.43
2023-02-08T01:40:57.773Z,-2.47
2023-02-08T01:45:59.909Z,-2.48
2023-02-08T01:51:21.459Z,-2.47
2023-02-08T01:56:36.261Z,-2.49
2023-02-08T02:01:40.140Z,-2.55
2023-02-08T02:06:48.799Z,-2.58
2023-02-08T02:11:53.465Z,-2.54
2023-02-08T02:16:55.401Z,-2.44
2023-02-08T02:22:25.234Z,-2.39
2023-02-08T02:27:55.141Z,-2.40
2023-02-08T02:33:24.196Z,-2.40
2023-02-08T02:38:37.055Z,-2.40
2023-02-08T02:43:52.148Z,-2.38
2023-02-08T02:49:01.033Z,-2.38
2023-02-08T02:54:16.125Z,-2.44
2023-02-08T02:59:19.799Z,-2.59
2023-02-08T03:04:33.903Z,-2.71
2023-02-08T03:10:00.287Z,-2.77
2023-02-08T03:15:28.775Z,-2.68
2023-02-08T03:20:58.180Z,-2.63
2023-02-08T03:26:06.977Z,-2.56
2023-02-08T03:31:19.536Z,-2.52
2023-02-08T03:36:38.792Z,-2.60
2023-02-08T03:41:43.050Z,-2.73
2023-02-08T03:46:52.291Z,-2.76
2023-02-08T03:51:58.543Z,-2.80
2023-02-08T03:57:18.522Z,-2.86
2023-02-08T04:02:24.854Z,-2.95
2023-02-08T04:07:26.779Z,-3.04
2023-02-08T04:12:28.609Z,-3.11
2023-02-08T04:17:30.480Z,-3.12
2023-02-08T04:22:33.652Z,-3.16
2023-02-08T04:27:35.489Z,-3.14
2023-02-08T04:32:37.360Z,-3.14
2023-02-08T04:37:39.194Z,-3.32
2023-02-08T04:42:41.044Z,-3.39
2023-02-08T04:47:42.861Z,-3.39
2023-02-08T04:52:44.699Z,-3.38
2023-02-08T04:57:46.562Z,-3.37
2023-02-08T05:02:48.410Z,-3.25
2023-02-08T05:07:50.327Z,-3.11
2023-02-08T05:12:52.184Z,-2.99
2023-02-08T05:17:54.045Z,-2.92
2023-02-08T05:22:56.197Z,-2.92
2023-02-08T05:27:59.765Z,-2.81
2023-02-08T05:33:01.674Z,-2.89
2023-02-08T05:38:03.684Z,-2.78
2023-02-08T05:43:05.507Z,-2.82
2023-02-08T05:48:07.353Z,-2.64
2023-02-08T05:53:09.323Z,-2.82
2023-02-08T05:58:11.205Z,-2.68
2023-02-08T06:03:13.141Z,-2.79
2023-02-08T06:08:15.431Z,-2.89
2023-02-08T06:13:17.337Z,-2.94
2023-02-08T06:18:19.190Z,-2.94
2023-02-08T06:23:21.821Z,-2.91
2023-02-08T06:28:23.731Z,-2.85
2023-02-08T06:33:25.579Z,-2.83
2023-02-08T06:38:27.508Z,-2.79
2023-02-08T06:43:29.373Z,-2.78
2023-02-08T06:48:31.874Z,-2.76
2023-02-08T06:53:33.707Z,-2.68
2023-02-08T06:58:35.561Z,-2.54
2023-02-08T07:03:37.437Z,-2.37
2023-02-08T07:08:39.471Z,-2.18
2023-02-08T07:13:41.631Z,-2.01
2023-02-08T07:18:43.620Z,-1.81
2023-02-08T07:23:45.500Z,-1.63
2023-02-08T07:28:47.339Z,-1.45
2023-02-08T07:33:49.581Z,-1.25
2023-02-08T07:38:51.724Z,-0.96
2023-02-08T07:43:53.934Z,-0.70
2023-02-08T07:48:55.924Z,-0.49
2023-02-08T07:53:57.786Z,-0.22
2023-02-08T07:58:59.865Z,-0.09
2023-02-08T08:04:01.722Z,0.14
2023-02-08T08:09:03.644Z,0.30
2023-02-08T08:14:05.531Z,0.52
2023-02-08T08:19:07.395Z,0.66
2023-02-08T08:24:09.307Z,0.81
2023-02-08T08:29:11.157Z,0.95
2023-02-08T08:34:13.045Z,1.09
2023-02-08T08:39:14.882Z,1.33
2023-02-08T08:44:16.765Z,1.62
2023-02-08T08:49:18.596Z,1.79
2023-02-08T08:54:21.048Z,1.70
2023-02-08T08:59:22.965Z,1.62
2023-02-08T09:04:25.292Z,1.61
2023-02-08T09:09:27.276Z,1.57
2023-02-08T09:14:29.224Z,1.66
2023-02-08T09:19:31.293Z,1.75
2023-02-08T09:24:34.039Z,1.76
2023-02-08T09:29:35.924Z,1.79
2023-02-08T09:34:37.774Z,1.92
2023-02-08T09:39:39.832Z,1.99
2023-02-08T09:45:12.511Z,2.09
2023-02-08T09:50:20.417Z,2.16
2023-02-08T09:55:36.386Z,2.22
2023-02-08T10:00:44.378Z,2.42
2023-02-08T10:05:46.725Z,2.42
2023-02-08T10:11:07.024Z,2.29
2023-02-08T10:16:21.487Z,2.23
2023-02-08T10:21:51.990Z,2.21
2023-02-08T10:27:22.908Z,2.25
2023-02-08T10:32:46.367Z,2.36
2023-02-08T10:37:48.354Z,2.50
2023-02-08T10:43:22.673Z,2.63
2023-02-08T10:48:38.566Z,2.72
2023-02-08T10:53:40.436Z,2.80
2023-02-08T10:58:42.388Z,2.89
2023-02-08T11:04:05.281Z,2.91
2023-02-08T11:09:19.961Z,3.02
2023-02-08T11:14:27.125Z,2.99
2023-02-08T11:19:35.392Z,3.09
2023-02-08T11:24:43.608Z,3.38
2023-02-08T11:29:45.532Z,3.60
2023-02-08T11:34:47.463Z,3.72
2023-02-08T11:39:56.137Z,3.99
2023-02-08T11:44:59.944Z,4.15
2023-02-08T11:50:04.860Z,4.43
2023-02-08T11:55:18.860Z,4.60
2023-02-08T12:00:26.754Z,4.72
2023-02-08T12:05:43.058Z,4.79
2023-02-08T12:10:55.109Z,4.75
2023-02-08T12:16:05.797Z,4.78
2023-02-08T12:21:40.040Z,4.79
2023-02-08T12:27:09.666Z,4.85
2023-02-08T12:32:36.393Z,4.83
2023-02-08T12:37:59.607Z,4.91
2023-02-08T12:43:14.831Z,4.95
2023-02-08T12:48:47.636Z,4.97
2023-02-08T12:53:56.347Z,5.05
2023-02-08T12:59:11.844Z,5.10
2023-02-08T13:04:33.150Z,5.21
2023-02-08T13:09:46.578Z,5.37
2023-02-08T13:14:56.113Z,5.37
2023-02-08T13:20:07.051Z,5.41
2023-02-08T13:25:22.829Z,6.06
2023-02-08T13:30:24.855Z,7.63
2023-02-08T13:35:30.732Z,9.47
2023-02-08T13:40:35.627Z,10.78
2023-02-08T13:45:44.939Z,11.92
2023-02-08T13:50:47.143Z,12.53
2023-02-08T13:55:55.944Z,13.23
2023-02-08T14:00:57.752Z,14.13
2023-02-08T14:06:06.562Z,14.21
2023-02-08T14:11:14.818Z,14.36
2023-02-08T14:16:31.242Z,14.70
2023-02-08T14:21:43.248Z,14.79
2023-02-08T14:26:45.552Z,14.30
2023-02-08T14:31:47.539Z,13.78
2023-02-08T14:37:02.421Z,11.01
2023-02-08T14:42:08.917Z,8.77
2023-02-08T14:47:26.846Z,7.15
2023-02-08T14:52:29.738Z,6.38
2023-02-08T14:57:37.034Z,5.82
2023-02-08T15:02:43.297Z,5.40
2023-02-08T15:07:58.076Z,5.07
2023-02-08T15:13:06.457Z,4.84
2023-02-08T15:18:18.980Z,4.68
2023-02-08T15:23:24.753Z,4.55
2023-02-08T15:28:29.580Z,4.37
2023-02-08T15:33:32.408Z,4.13
2023-02-08T15:38:38.731Z,3.93
2023-02-08T15:43:42.428Z,3.71
2023-02-08T15:48:46.686Z,3.52
2023-02-08T15:53:51.707Z,3.48
2023-02-08T15:58:57.957Z,3.44
2023-02-08T16:04:06.148Z,3.42
2023-02-08T16:09:19.460Z,3.44
2023-02-08T16:14:28.769Z,3.40
2023-02-08T16:19:33.712Z,3.31
2023-02-08T16:24:35.521Z,3.20
2023-02-08T16:29:41.092Z,3.09
2023-02-08T16:34:43.048Z,3.03
2023-02-08T16:39:59.528Z,2.93
2023-02-08T16:45:20.357Z,2.87
2023-02-08T16:50:27.451Z,2.69
2023-02-08T16:55:36.369Z,2.57
2023-02-08T17:00:38.196Z,2.50
2023-02-08T17:05:41.120Z,2.44
2023-02-08T17:10:44.447Z,2.35
2023-02-08T17:15:48.655Z,2.29
2023-02-08T17:20:57.433Z,2.09
2023-02-08T17:25:59.312Z,1.93
2023-02-08T17:31:01.783Z,1.89
2023-02-08T17:36:03.784Z,1.91
2023-02-08T17:41:13.456Z,1.81
2023-02-08T17:46:21.223Z,1.70
2023-02-08T17:51:24.386Z,1.67
2023-02-08T17:56:29.160Z,1.67
2023-02-08T18:01:32.086Z,1.57
2023-02-08T18:06:34.046Z,1.50
2023-02-08T18:11:35.844Z,1.44
2023-02-08T18:16:37.776Z,1.41
2023-02-08T18:21:39.625Z,1.42
2023-02-08T18:26:41.484Z,1.44
2023-02-08T18:31:43.778Z,1.51
2023-02-08T18:36:45.924Z,1.59
2023-02-08T18:41:47.779Z,1.60
2023-02-08T18:46:49.768Z,1.57
2023-02-08T18:51:51.659Z,1.52
2023-02-08T18:56:56.662Z,1.47
2023-02-08T19:02:03.272Z,1.42
2023-02-08T19:07:06.868Z,1.40
2023-02-08T19:12:09.376Z,1.33
2023-02-08T19:17:14.372Z,1.26
2023-02-08T19:22:18.215Z,1.18
2023-02-08T19:27:20.697Z,1.09
2023-02-08T19:32:23.931Z,0.96
2023-02-08T19:37:26.255Z,0.88
2023-02-08T19:42:28.549Z,0.80
2023-02-08T19:47:50.045Z,0.75
2023-02-08T19:52:52.857Z,0.69
2023-02-08T19:57:58.222Z,0.68
2023-02-08T20:03:07.803Z,0.67
2023-02-08T20:08:19.939Z,0.65
2023-02-08T20:13:24.384Z,0.69
2023-02-08T20:18:26.467Z,0.78
2023-02-08T20:23:28.668Z,0.89
2023-02-08T20:28:30.631Z,1.01
2023-02-08T20:33:32.506Z,1.13
2023-02-08T20:38:34.589Z,1.22
2023-02-08T20:43:37.140Z,1.27
2023-02-08T20:48:39.202Z,1.31
2023-02-08T20:53:42.754Z,1.35
2023-02-08T20:58:45.658Z,1.34
2023-02-08T21:03:48.173Z,1.36
2023-02-08T21:08:54.581Z,1.35
2023-02-08T21:13:57.872Z,1.36
2023-02-08T21:19:00.136Z,1.35
2023-02-08T21:24:02.048Z,1.33
2023-02-08T21:29:07.303Z,1.33
2023-02-08T21:34:09.366Z,1.34
2023-02-08T21:39:11.288Z,1.32
2023-02-08T21:44:13.532Z,1.30
2023-02-08T21:49:38.709Z,1.33
2023-02-08T21:54:46.691Z,1.37
2023-02-08T21:59:50.518Z,1.37
2023-02-08T22:05:13.568Z,1.37
2023-02-08T22:10:17.833Z,1.38
2023-02-08T22:15:22.481Z,1.36
2023-02-08T22:20:25.213Z,1.37
2023-02-08T22:25:27.146Z,1.32
2023-02-08T22:30:29.034Z,1.26
2023-02-08T22:35:30.990Z,1.27
2023-02-08T22:40:32.923Z,1.29
2023-02-08T22:45:34.906Z,1.32
2023-02-08T22:50:39.950Z,1.35
2023-02-08T22:56:04.509Z,1.40
2023-02-08T23:01:14.743Z,1.38
2023-02-08T23:06:17.695Z,1.38
2023-02-08T23:11:20.876Z,1.38
2023-02-08T23:16:23.314Z,1.36
2023-02-08T23:21:25.275Z,1.30
2023-02-08T23:26:27.129Z,1.32
2023-02-08T23:31:29.225Z,1.32
2023-02-08T23:36:31.112Z,1.32
2023-02-08T23:41:33.253Z,1.30
2023-02-08T23:46:35.152Z,1.28
2023-02-08T23:51:36.996Z,1.24
2023-02-08T23:56:38.998Z,1.22
